createdAt,value
2022-08-30T00:01:24.444Z,7.30
2022-08-30T00:03:54.989Z,7.80
2022-08-30T00:06:25.131Z,8.17
2022-08-30T00:08:53.283Z,8.23
2022-08-30T00:11:23.327Z,8.73
2022-08-30T00:13:53.254Z,7.50
2022-08-30T00:16:23.314Z,8.03
2022-08-30T00:18:51.415Z,7.90
2022-08-30T00:21:20.362Z,7.67
2022-08-30T00:23:49.477Z,8.17
2022-08-30T00:26:17.284Z,8.80
2022-08-30T00:28:45.091Z,7.57
2022-08-30T00:31:15.433Z,8.00
2022-08-30T00:33:43.513Z,7.93
2022-08-30T00:36:11.282Z,7.43
2022-08-30T00:38:39.068Z,7.50
2022-08-30T00:41:08.611Z,7.57
2022-08-30T00:43:37.131Z,7.60
2022-08-30T00:46:08.086Z,7.80
2022-08-30T00:48:38.835Z,7.47
2022-08-30T00:51:12.032Z,7.17
2022-08-30T00:53:43.716Z,8.30
2022-08-30T00:56:13.264Z,7.50
2022-08-30T00:58:47.604Z,7.00
2022-08-30T01:01:15.805Z,8.07
2022-08-30T01:03:44.927Z,7.37
2022-08-30T01:06:15.496Z,7.70
2022-08-30T01:08:43.614Z,7.90
2022-08-30T01:11:14.790Z,8.60
2022-08-30T01:13:45.671Z,8.70
2022-08-30T01:16:13.837Z,8.63
2022-08-30T01:18:41.776Z,8.00
2022-08-30T01:21:16.887Z,7.93
2022-08-30T01:23:48.346Z,7.50
2022-08-30T01:26:17.377Z,7.80
2022-08-30T01:28:49.395Z,7.73
2022-08-30T01:31:17.425Z,7.07
2022-08-30T01:33:45.368Z,7.60
2022-08-30T01:36:17.271Z,7.73
2022-08-30T01:38:49.584Z,8.40
2022-08-30T01:41:20.748Z,7.70
2022-08-30T01:43:50.653Z,7.67
2022-08-30T01:46:20.597Z,8.00
2022-08-30T01:48:52.011Z,7.77
2022-08-30T01:51:23.315Z,7.40
2022-08-30T01:53:52.591Z,7.50
2022-08-30T01:56:20.468Z,6.77
2022-08-30T01:58:48.324Z,7.80
2022-08-30T02:01:19.733Z,7.40
2022-08-30T02:03:48.429Z,8.23
2022-08-30T02:06:18.862Z,8.57
2022-08-30T02:08:46.860Z,7.93
2022-08-30T02:11:16.915Z,7.97
2022-08-30T02:13:46.832Z,7.20
2022-08-30T02:16:16.650Z,7.70
2022-08-30T02:18:44.791Z,7.90
2022-08-30T02:21:13.821Z,7.83
2022-08-30T02:23:41.877Z,7.60
2022-08-30T02:26:10.624Z,7.10
2022-08-30T02:28:42.837Z,7.63
2022-08-30T02:31:20.476Z,7.50
2022-08-30T02:33:50.111Z,7.70
2022-08-30T02:36:19.050Z,7.77
2022-08-30T02:38:47.236Z,7.77
2022-08-30T02:41:15.135Z,7.40
2022-08-30T02:43:44.317Z,8.73
2022-08-30T02:46:12.315Z,7.57
2022-08-30T02:48:40.120Z,8.03
2022-08-30T02:51:11.678Z,7.90
2022-08-30T02:53:40.442Z,7.60
2022-08-30T02:56:09.351Z,7.83
2022-08-30T02:58:37.676Z,8.57
2022-08-30T03:01:07.175Z,9.07
2022-08-30T03:03:35.141Z,8.50
2022-08-30T03:06:03.512Z,8.67
2022-08-30T03:08:31.785Z,8.17
2022-08-30T03:10:59.977Z,8.40
2022-08-30T03:13:27.746Z,8.63
2022-08-30T03:15:55.606Z,7.33
2022-08-30T03:18:26.528Z,7.30
2022-08-30T03:20:55.025Z,7.93
2022-08-30T03:23:23.862Z,8.23
2022-08-30T03:25:52.110Z,8.80
2022-08-30T03:28:20.046Z,8.67
2022-08-30T03:30:48.081Z,8.80
2022-08-30T03:33:16.539Z,8.37
2022-08-30T03:35:48.051Z,8.67
2022-08-30T03:38:15.818Z,8.43
2022-08-30T03:40:44.673Z,8.77
2022-08-30T03:43:12.527Z,8.93
2022-08-30T03:45:40.783Z,8.47
2022-08-30T03:48:08.822Z,8.20
2022-08-30T03:50:36.906Z,7.97
2022-08-30T03:53:06.065Z,7.93
2022-08-30T03:55:34.021Z,8.00
2022-08-30T03:58:01.860Z,7.73
2022-08-30T04:00:29.736Z,7.77
2022-08-30T04:02:57.487Z,7.50
2022-08-30T04:05:25.453Z,7.60
2022-08-30T04:07:53.428Z,7.20
2022-08-30T04:10:23.068Z,7.37
2022-08-30T04:12:51.536Z,7.13
2022-08-30T04:15:20.814Z,7.33
2022-08-30T04:17:49.314Z,7.80
2022-08-30T04:20:17.305Z,7.57
2022-08-30T04:22:45.028Z,7.43
2022-08-30T04:25:15.712Z,8.17
2022-08-30T04:27:46.289Z,7.40
2022-08-30T04:30:15.269Z,7.50
2022-08-30T04:32:43.116Z,8.13
2022-08-30T04:35:11.744Z,7.93
2022-08-30T04:37:40.552Z,8.13
2022-08-30T04:40:11.017Z,8.10
2022-08-30T04:42:39.123Z,8.13
2022-08-30T04:45:10.947Z,7.40
2022-08-30T04:47:39.832Z,7.67
2022-08-30T04:50:10.575Z,7.73
2022-08-30T04:52:38.714Z,8.03
2022-08-30T04:55:08.702Z,7.50
2022-08-30T04:57:36.498Z,7.30
2022-08-30T05:00:06.604Z,6.83
2022-08-30T05:02:36.125Z,7.07
2022-08-30T05:05:22.241Z,7.03
2022-08-30T05:07:50.350Z,6.57
2022-08-30T05:10:18.250Z,6.50
2022-08-30T05:12:45.983Z,6.43
2022-08-30T05:15:14.294Z,6.33
2022-08-30T05:17:43.470Z,6.80
2022-08-30T05:20:12.630Z,6.60
2022-08-30T05:22:49.843Z,6.50
2022-08-30T05:25:23.152Z,6.77
2022-08-30T05:27:51.114Z,6.83
2022-08-30T05:30:19.881Z,7.17
2022-08-30T05:32:49.083Z,7.13
2022-08-30T05:35:22.185Z,6.40
2022-08-30T05:37:52.820Z,7.20
2022-08-30T05:40:20.953Z,7.00
2022-08-30T05:42:49.084Z,7.83
2022-08-30T05:45:17.082Z,8.00
2022-08-30T05:47:44.888Z,8.30
2022-08-30T05:50:14.328Z,8.37
2022-08-30T05:52:44.211Z,7.83
2022-08-30T05:55:13.089Z,7.60
2022-08-30T05:57:42.387Z,8.10
2022-08-30T06:00:13.487Z,8.03
2022-08-30T06:02:41.894Z,7.63
2022-08-30T06:05:10.762Z,8.60
2022-08-30T06:07:43.839Z,8.03
2022-08-30T06:10:12.330Z,8.20
2022-08-30T06:12:40.294Z,7.30
2022-08-30T06:15:09.182Z,7.67
2022-08-30T06:17:39.511Z,7.00
2022-08-30T06:20:09.049Z,7.60
2022-08-30T06:22:38.624Z,8.37
2022-08-30T06:25:09.151Z,7.60
2022-08-30T06:27:36.993Z,7.57
2022-08-30T06:30:08.188Z,8.23
2022-08-30T06:32:36.127Z,9.00
2022-08-30T06:35:04.678Z,8.60
2022-08-30T06:37:32.997Z,8.30
2022-08-30T06:40:02.507Z,8.20
2022-08-30T06:42:34.132Z,9.27
2022-08-30T06:45:03.380Z,9.27
2022-08-30T06:47:39.457Z,9.73
2022-08-30T06:50:08.791Z,10.30
2022-08-30T06:52:40.116Z,10.67
2022-08-30T06:55:08.492Z,11.70
2022-08-30T06:57:37.674Z,11.50
2022-08-30T07:00:07.264Z,11.60
2022-08-30T07:02:37.397Z,11.50
2022-08-30T07:05:05.719Z,11.07
2022-08-30T07:07:33.499Z,10.97
2022-08-30T07:10:03.408Z,12.87
2022-08-30T07:12:31.581Z,12.00
2022-08-30T07:15:00.754Z,12.63
2022-08-30T07:17:45.835Z,12.63
2022-08-30T07:20:13.892Z,12.17
2022-08-30T07:22:42.216Z,12.40
2022-08-30T07:25:10.418Z,12.90
2022-08-30T07:27:38.230Z,12.33
2022-08-30T07:30:09.518Z,12.07
2022-08-30T07:32:38.405Z,12.27
2022-08-30T07:35:07.095Z,12.13
2022-08-30T07:37:34.959Z,11.93
2022-08-30T07:40:03.276Z,11.50
2022-08-30T07:42:31.107Z,12.07
2022-08-30T07:44:58.939Z,12.13
2022-08-30T07:47:28.158Z,10.93
2022-08-30T07:49:55.964Z,10.03
2022-08-30T07:52:23.800Z,10.07
2022-08-30T07:54:52.851Z,10.30
2022-08-30T07:57:20.918Z,10.33
2022-08-30T07:59:48.696Z,10.00
2022-08-30T08:02:16.547Z,10.30
2022-08-30T08:04:48.480Z,9.43
2022-08-30T08:07:16.496Z,8.83
2022-08-30T08:09:44.251Z,9.10
2022-08-30T08:12:12.060Z,10.40
2022-08-30T08:14:40.756Z,9.83
2022-08-30T08:17:09.260Z,10.23
2022-08-30T08:19:37.103Z,9.70
2022-08-30T08:22:22.033Z,9.77
2022-08-30T08:24:50.345Z,9.57
2022-08-30T08:27:18.337Z,9.33
2022-08-30T08:29:46.102Z,9.83
2022-08-30T08:32:13.895Z,9.53
2022-08-30T08:34:42.309Z,8.90
2022-08-30T08:37:11.472Z,8.88
2022-08-30T08:39:39.351Z,8.32
2022-08-30T08:42:17.132Z,8.05
2022-08-30T08:44:55.807Z,7.80
2022-08-30T08:47:29.863Z,8.90
2022-08-30T08:50:00.647Z,8.20
2022-08-30T08:52:53.599Z,7.45
2022-08-30T08:55:23.970Z,7.68
2022-08-30T08:57:52.434Z,7.13
2022-08-30T09:00:20.616Z,7.05
2022-08-30T09:02:55.932Z,7.13
2022-08-30T09:05:26.847Z,7.22
2022-08-30T09:08:04.554Z,7.80
2022-08-30T09:10:50.077Z,6.72
2022-08-30T09:13:19.584Z,6.30
2022-08-30T09:15:54.631Z,6.55
2022-08-30T09:18:42.843Z,7.53
2022-08-30T09:21:14.968Z,6.95
2022-08-30T09:23:51.869Z,6.38
2022-08-30T09:26:30.679Z,6.57
2022-08-30T09:28:59.998Z,5.45
2022-08-30T09:31:30.995Z,5.72
2022-08-30T09:34:03.354Z,6.15
2022-08-30T09:36:35.052Z,5.88
2022-08-30T09:39:08.412Z,5.10
2022-08-30T09:41:41.200Z,5.50
2022-08-30T09:44:12.086Z,6.53
2022-08-30T09:46:46.284Z,5.82
2022-08-30T09:49:33.716Z,5.07
2022-08-30T09:52:18.697Z,5.28
2022-08-30T09:55:02.564Z,5.10
2022-08-30T09:57:37.488Z,4.80
2022-08-30T10:00:09.010Z,4.90
2022-08-30T10:02:53.275Z,5.05
2022-08-30T10:05:28.847Z,4.53
2022-08-30T10:08:07.211Z,4.97
2022-08-30T10:10:45.773Z,4.85
2022-08-30T10:13:38.127Z,4.45
2022-08-30T10:16:20.447Z,4.60
2022-08-30T10:18:58.534Z,4.45
2022-08-30T10:21:32.903Z,4.63
2022-08-30T10:24:05.636Z,4.43
2022-08-30T10:26:39.368Z,4.65
2022-08-30T10:29:12.397Z,4.75
2022-08-30T10:31:45.527Z,4.43
2022-08-30T10:34:19.098Z,4.80
2022-08-30T10:36:53.820Z,4.53
2022-08-30T10:39:26.541Z,4.63
2022-08-30T10:42:07.748Z,4.22
2022-08-30T10:44:41.215Z,4.20
2022-08-30T10:47:23.296Z,4.47
2022-08-30T10:49:57.745Z,4.60
2022-08-30T10:52:32.209Z,4.45
2022-08-30T10:55:03.682Z,4.40
2022-08-30T10:57:32.860Z,4.60
2022-08-30T11:00:05.908Z,4.55
2022-08-30T11:03:02.164Z,4.05
2022-08-30T11:05:46.570Z,4.10
2022-08-30T11:08:31.381Z,4.30
2022-08-30T11:11:07.614Z,4.70
2022-08-30T11:13:44.059Z,4.28
2022-08-30T11:16:15.698Z,4.65
2022-08-30T11:18:51.027Z,4.60
2022-08-30T11:21:32.668Z,4.57
2022-08-30T11:24:06.513Z,4.15
2022-08-30T11:27:11.184Z,5.43
2022-08-30T11:29:42.948Z,4.68
2022-08-30T11:32:45.728Z,4.25
2022-08-30T11:35:37.888Z,4.65
2022-08-30T11:38:14.842Z,4.38
2022-08-30T11:40:53.154Z,4.25
2022-08-30T11:43:51.829Z,4.20
2022-08-30T11:46:38.284Z,4.10
2022-08-30T11:49:36.667Z,4.03
2022-08-30T11:52:28.306Z,4.25
2022-08-30T11:55:31.572Z,3.90
2022-08-30T11:58:11.584Z,4.07
2022-08-30T12:00:42.348Z,4.40
2022-08-30T12:03:32.612Z,4.20
2022-08-30T12:06:02.468Z,3.95
2022-08-30T12:08:56.543Z,3.90
2022-08-30T12:11:58.525Z,4.10
2022-08-30T12:14:54.494Z,3.83
2022-08-30T12:17:44.734Z,4.03
2022-08-30T12:20:21.242Z,3.85
2022-08-30T12:22:49.942Z,4.15
2022-08-30T12:25:25.076Z,3.70
2022-08-30T12:27:53.168Z,3.97
2022-08-30T12:30:27.993Z,4.22
2022-08-30T12:32:58.619Z,3.72
2022-08-30T12:35:29.567Z,3.97
2022-08-30T12:38:02.908Z,4.10
2022-08-30T12:40:34.831Z,3.70
2022-08-30T12:43:08.436Z,3.88
2022-08-30T12:45:44.858Z,3.50
2022-08-30T12:48:16.779Z,3.72
2022-08-30T12:50:51.914Z,3.80
2022-08-30T12:53:27.353Z,4.22
2022-08-30T12:56:00.479Z,3.85
2022-08-30T12:58:40.864Z,3.67
2022-08-30T13:01:15.222Z,3.83
2022-08-30T13:03:43.195Z,4.13
2022-08-30T13:06:12.397Z,3.80
2022-08-30T13:08:53.204Z,3.65
2022-08-30T13:11:29.561Z,3.72
2022-08-30T13:14:19.142Z,3.90
2022-08-30T13:16:49.396Z,3.80
2022-08-30T13:19:29.112Z,3.55
2022-08-30T13:21:59.258Z,3.75
2022-08-30T13:24:28.071Z,4.03
2022-08-30T13:26:57.367Z,3.92
2022-08-30T13:29:27.567Z,3.90
2022-08-30T13:31:57.189Z,4.20
2022-08-30T13:34:25.175Z,3.70
2022-08-30T13:36:56.544Z,3.90
2022-08-30T13:39:25.262Z,3.80
2022-08-30T13:41:53.715Z,3.58
2022-08-30T13:44:22.038Z,4.00
2022-08-30T13:46:55.298Z,3.60
2022-08-30T13:49:45.146Z,4.00
2022-08-30T13:52:21.991Z,4.10
2022-08-30T13:54:51.101Z,3.72
2022-08-30T14:00:14.414Z,3.80
2022-08-30T14:02:47.765Z,3.85
2022-08-30T14:08:44.549Z,3.83
2022-08-30T14:10:56.511Z,3.67
2022-08-30T14:13:25.003Z,3.90
2022-08-30T14:18:43.600Z,3.63
2022-08-30T14:21:13.090Z,3.47
2022-08-30T14:23:40.850Z,3.58
2022-08-30T14:26:14.528Z,3.75
2022-08-30T14:28:45.064Z,3.63
2022-08-30T14:31:13.045Z,3.35
2022-08-30T14:33:41.547Z,3.42
2022-08-30T14:36:13.139Z,3.40
2022-08-30T14:38:45.408Z,3.80
2022-08-30T14:41:13.447Z,3.80
2022-08-30T14:43:41.437Z,3.65
2022-08-30T14:46:10.160Z,3.58
2022-08-30T14:48:39.442Z,3.90
2022-08-30T14:51:13.399Z,3.50
2022-08-30T14:53:41.852Z,3.90
2022-08-30T14:56:14.076Z,3.75
2022-08-30T14:58:41.990Z,4.00
2022-08-30T15:01:10.958Z,3.70
2022-08-30T15:03:42.173Z,3.70
2022-08-30T15:06:10.136Z,3.53
2022-08-30T15:08:39.370Z,3.63
2022-08-30T15:11:12.016Z,3.70
2022-08-30T15:13:41.160Z,3.58
2022-08-30T15:16:15.117Z,3.88
2022-08-30T15:18:43.004Z,3.50
2022-08-30T15:21:11.368Z,3.97
2022-08-30T15:23:39.803Z,4.03
2022-08-30T15:26:09.809Z,3.72
2022-08-30T15:28:39.104Z,3.83
2022-08-30T15:31:09.507Z,3.60
2022-08-30T15:33:38.636Z,3.60
2022-08-30T15:36:07.474Z,4.00
2022-08-30T15:38:35.727Z,3.80
2022-08-30T15:41:06.022Z,3.55
2022-08-30T15:43:34.787Z,3.60
2022-08-30T15:46:18.611Z,4.07
2022-08-30T15:48:47.668Z,3.75
2022-08-30T15:51:16.632Z,3.83
2022-08-30T15:53:44.860Z,3.78
2022-08-30T15:56:12.756Z,4.20
2022-08-30T15:58:40.984Z,4.10
2022-08-30T16:01:11.194Z,3.70
2022-08-30T16:03:41.533Z,4.20
2022-08-30T16:06:13.227Z,3.75
2022-08-30T16:08:41.287Z,3.85
2022-08-30T16:11:11.287Z,4.00
2022-08-30T16:13:42.104Z,4.00
2022-08-30T16:16:11.592Z,4.07
2022-08-30T16:18:40.419Z,4.40
2022-08-30T16:21:11.395Z,4.10
2022-08-30T16:23:40.897Z,4.05
2022-08-30T16:26:16.856Z,4.00
2022-08-30T16:28:46.094Z,4.00
2022-08-30T16:31:17.085Z,4.25
2022-08-30T16:33:45.695Z,4.00
2022-08-30T16:36:14.523Z,4.20
2022-08-30T16:38:42.508Z,4.80
2022-08-30T16:41:15.624Z,4.22
2022-08-30T16:43:46.963Z,4.07
2022-08-30T16:46:22.962Z,4.20
2022-08-30T16:48:51.347Z,4.30
2022-08-30T16:51:22.264Z,4.10
2022-08-30T16:53:50.565Z,4.38
2022-08-30T16:56:21.485Z,4.32
2022-08-30T16:58:56.489Z,4.30
2022-08-30T17:01:31.818Z,4.40
2022-08-30T17:04:00.039Z,4.53
2022-08-30T17:06:27.953Z,4.57
2022-08-30T17:08:56.536Z,4.38
2022-08-30T17:11:25.011Z,4.43
2022-08-30T17:13:53.488Z,4.85
2022-08-30T17:16:22.694Z,4.63
2022-08-30T17:18:59.783Z,4.97
2022-08-30T17:21:28.985Z,4.50
2022-08-30T17:24:01.352Z,4.95
2022-08-30T17:26:30.091Z,4.53
2022-08-30T17:28:57.882Z,4.55
2022-08-30T17:31:27.789Z,4.50
2022-08-30T17:34:02.933Z,5.20
2022-08-30T17:36:37.126Z,4.85
2022-08-30T17:39:10.954Z,4.60
2022-08-30T17:44:29.773Z,5.00
2022-08-30T17:46:59.705Z,4.80
2022-08-30T17:49:30.173Z,5.30
2022-08-30T17:51:58.826Z,5.07
2022-08-30T17:54:27.293Z,4.90
2022-08-30T17:56:55.293Z,5.20
2022-08-30T17:59:25.323Z,5.32
2022-08-30T18:01:55.333Z,5.32
2022-08-30T18:04:24.818Z,6.10
2022-08-30T18:06:54.739Z,5.20
2022-08-30T18:09:23.318Z,5.50
2022-08-30T18:11:52.308Z,5.70
2022-08-30T18:14:24.942Z,5.90
2022-08-30T18:16:54.687Z,5.50
2022-08-30T18:19:23.376Z,5.53
2022-08-30T18:21:51.230Z,5.45
2022-08-30T18:24:20.700Z,6.10
2022-08-30T18:26:48.581Z,5.80
2022-08-30T18:29:26.342Z,5.63
2022-08-30T18:31:59.263Z,5.70
2022-08-30T18:34:27.009Z,5.57
2022-08-30T18:36:55.018Z,6.25
2022-08-30T18:39:24.399Z,6.60
2022-08-30T18:41:54.596Z,6.75
2022-08-30T18:44:28.354Z,6.60
2022-08-30T18:47:00.199Z,6.90
2022-08-30T18:49:28.967Z,6.88
2022-08-30T18:52:00.492Z,7.07
2022-08-30T18:54:30.279Z,7.35
2022-08-30T18:56:58.054Z,6.80
2022-08-30T18:59:35.386Z,6.77
2022-08-30T19:02:05.593Z,7.13
2022-08-30T19:04:35.813Z,6.93
2022-08-30T19:07:05.103Z,6.90
2022-08-30T19:09:34.769Z,7.07
2022-08-30T19:12:02.881Z,7.20
2022-08-30T19:14:31.290Z,6.73
2022-08-30T19:17:01.073Z,7.50
2022-08-30T19:19:35.002Z,7.07
2022-08-30T19:22:06.153Z,7.40
2022-08-30T19:24:35.367Z,7.73
2022-08-30T19:27:03.413Z,6.80
2022-08-30T19:29:31.184Z,7.20
2022-08-30T19:31:58.925Z,7.70
2022-08-30T19:34:26.698Z,7.80
2022-08-30T19:36:55.852Z,7.73
2022-08-30T19:39:24.105Z,8.23
2022-08-30T19:41:53.526Z,7.90
2022-08-30T19:44:21.292Z,8.40
2022-08-30T19:46:49.027Z,8.30
2022-08-30T19:49:16.853Z,8.13
2022-08-30T19:51:46.691Z,7.87
2022-08-30T19:54:15.431Z,7.90
2022-08-30T19:56:45.555Z,7.80
2022-08-30T19:59:17.268Z,7.57
2022-08-30T20:01:45.783Z,7.87
2022-08-30T20:04:14.278Z,8.33
2022-08-30T20:06:42.472Z,7.57
2022-08-30T20:09:10.917Z,7.73
2022-08-30T20:11:38.896Z,8.23
2022-08-30T20:14:07.782Z,8.10
2022-08-30T20:16:38.106Z,8.57
2022-08-30T20:19:06.883Z,8.47
2022-08-30T20:21:34.700Z,8.00
2022-08-30T20:24:04.089Z,8.57
2022-08-30T20:24:24.179Z,4.80
2022-08-30T20:26:34.216Z,8.07
2022-08-30T20:29:02.640Z,7.97
2022-08-30T20:31:30.621Z,8.03
2022-08-30T20:33:59.929Z,8.67
2022-08-30T20:36:27.775Z,7.97
2022-08-30T20:38:55.556Z,8.43
2022-08-30T20:41:23.957Z,8.83
2022-08-30T20:43:52.882Z,8.23
2022-08-30T20:46:21.789Z,8.90
2022-08-30T20:48:49.646Z,9.03
2022-08-30T20:51:22.069Z,9.00
2022-08-30T20:53:50.503Z,8.90
2022-08-30T20:56:21.618Z,8.67
2022-08-30T20:58:50.100Z,8.43
2022-08-30T21:01:18.478Z,8.43
2022-08-30T21:03:47.598Z,8.27
2022-08-30T21:06:16.594Z,9.10
2022-08-30T21:08:45.802Z,8.50
2022-08-30T21:11:13.802Z,8.37
2022-08-30T21:13:41.584Z,8.43
2022-08-30T21:16:09.510Z,8.60
2022-08-30T21:18:40.112Z,8.17
2022-08-30T21:21:12.275Z,7.97
2022-08-30T21:23:40.114Z,8.67
2022-08-30T21:26:10.336Z,8.20
2022-08-30T21:28:38.757Z,8.50
2022-08-30T21:31:08.749Z,7.63
2022-08-30T21:33:36.891Z,8.13
2022-08-30T21:36:22.417Z,8.57
2022-08-30T21:38:52.569Z,8.10
2022-08-30T21:41:22.659Z,8.63
2022-08-30T21:43:57.885Z,8.93
2022-08-30T21:46:27.184Z,8.33
2022-08-30T21:48:55.286Z,8.50
2022-08-30T21:51:23.030Z,9.10
2022-08-30T21:53:50.824Z,8.83
2022-08-30T21:56:23.175Z,8.73
2022-08-30T21:58:51.365Z,8.80
2022-08-30T22:01:23.424Z,8.60
2022-08-30T22:03:51.974Z,8.60
2022-08-30T22:06:20.424Z,7.83
2022-08-30T22:08:50.131Z,7.87
2022-08-30T22:11:22.922Z,8.20
2022-08-30T22:13:52.000Z,8.70
2022-08-30T22:16:21.357Z,8.53
2022-08-30T22:18:50.111Z,8.33
2022-08-30T22:21:21.359Z,8.10
2022-08-30T22:23:49.329Z,8.30
2022-08-30T22:26:19.264Z,8.30
2022-08-30T22:28:48.617Z,7.53
2022-08-30T22:31:21.109Z,7.27
2022-08-30T22:33:49.623Z,7.20
2022-08-30T22:36:19.879Z,7.00
2022-08-30T22:38:48.590Z,6.90
2022-08-30T22:41:18.447Z,6.33
2022-08-30T22:43:50.610Z,6.57
2022-08-30T22:46:20.718Z,6.33
2022-08-30T22:48:59.196Z,6.83
2022-08-30T22:51:27.231Z,6.63
2022-08-30T22:53:55.762Z,6.77
2022-08-30T22:56:26.630Z,6.50
2022-08-30T22:58:56.859Z,5.93
2022-08-30T23:01:27.698Z,6.33
2022-08-30T23:03:56.030Z,6.00
2022-08-30T23:06:24.412Z,6.63
2022-08-30T23:08:52.193Z,7.07
2022-08-30T23:11:20.768Z,6.30
2022-08-30T23:13:49.075Z,6.10
2022-08-30T23:16:18.891Z,6.30
2022-08-30T23:18:47.719Z,6.00
2022-08-30T23:21:18.495Z,6.23
2022-08-30T23:24:04.151Z,6.00
2022-08-30T23:26:49.703Z,6.53
2022-08-30T23:29:35.457Z,6.10
2022-08-30T23:32:23.167Z,6.07
2022-08-30T23:35:08.592Z,6.10
2022-08-30T23:37:54.153Z,6.20
2022-08-30T23:40:39.896Z,6.30
2022-08-30T23:43:25.510Z,6.70
2022-08-30T23:46:10.717Z,6.90
2022-08-30T23:49:01.930Z,6.50
2022-08-30T23:51:46.966Z,6.90
2022-08-30T23:54:32.106Z,6.63
2022-08-30T23:57:17.572Z,6.53
